sensor_id;sensor_type;location;lat;lon;timestamp;temperature;humidity
19007;DHT22;9636;47.382;8.480;2023-06-10T00:01:16;25.10;84.50
19007;DHT22;9636;47.382;8.480;2023-06-10T00:03:43;25.10;84.60
19007;DHT22;9636;47.382;8.480;2023-06-10T00:06:10;25.00;84.50
19007;DHT22;9636;47.382;8.480;2023-06-10T00:08:36;25.00;84.70
19007;DHT22;9636;47.382;8.480;2023-06-10T00:11:05;25.00;84.70
19007;DHT22;9636;47.382;8.480;2023-06-10T00:13:32;25.00;84.80
19007;DHT22;9636;47.382;8.480;2023-06-10T00:15:58;25.00;84.80
19007;DHT22;9636;47.382;8.480;2023-06-10T00:18:27;24.90;84.80
19007;DHT22;9636;47.382;8.480;2023-06-10T00:20:55;24.90;84.90
19007;DHT22;9636;47.382;8.480;2023-06-10T00:23:22;24.90;84.90
19007;DHT22;9636;47.382;8.480;2023-06-10T00:25:50;24.90;85.00
19007;DHT22;9636;47.382;8.480;2023-06-10T00:28:17;24.80;85.90
19007;DHT22;9636;47.382;8.480;2023-06-10T00:30:44;24.80;85.10
19007;DHT22;9636;47.382;8.480;2023-06-10T00:33:10;24.80;85.10
19007;DHT22;9636;47.382;8.480;2023-06-10T00:35:39;24.80;85.10
19007;DHT22;9636;47.382;8.480;2023-06-10T00:38:05;24.80;85.10
19007;DHT22;9636;47.382;8.480;2023-06-10T00:40:33;24.80;85.30
19007;DHT22;9636;47.382;8.480;2023-06-10T00:43:05;24.70;85.20
19007;DHT22;9636;47.382;8.480;2023-06-10T00:45:32;24.70;85.30
19007;DHT22;9636;47.382;8.480;2023-06-10T00:48:00;24.60;85.40
19007;DHT22;9636;47.382;8.480;2023-06-10T00:50:27;24.60;85.50
19007;DHT22;9636;47.382;8.480;2023-06-10T00:52:56;24.60;85.50
19007;DHT22;9636;47.382;8.480;2023-06-10T00:55:23;24.60;85.50
19007;DHT22;9636;47.382;8.480;2023-06-10T00:57:51;24.60;85.60
19007;DHT22;9636;47.382;8.480;2023-06-10T01:00:18;24.60;85.70
19007;DHT22;9636;47.382;8.480;2023-06-10T01:02:46;24.50;85.70
19007;DHT22;9636;47.382;8.480;2023-06-10T01:05:13;24.50;85.70
19007;DHT22;9636;47.382;8.480;2023-06-10T01:07:45;24.50;85.70
19007;DHT22;9636;47.382;8.480;2023-06-10T01:10:22;24.50;85.80
19007;DHT22;9636;47.382;8.480;2023-06-10T01:12:57;24.40;85.80
19007;DHT22;9636;47.382;8.480;2023-06-10T01:15:28;24.40;86.00
19007;DHT22;9636;47.382;8.480;2023-06-10T01:17:57;24.40;86.00
19007;DHT22;9636;47.382;8.480;2023-06-10T01:20:25;24.40;86.00
19007;DHT22;9636;47.382;8.480;2023-06-10T01:22:55;24.30;86.10
19007;DHT22;9636;47.382;8.480;2023-06-10T01:25:23;24.30;86.10
19007;DHT22;9636;47.382;8.480;2023-06-10T01:27:54;24.30;86.10
19007;DHT22;9636;47.382;8.480;2023-06-10T01:30:27;24.30;86.20
19007;DHT22;9636;47.382;8.480;2023-06-10T01:32:58;24.30;86.20
19007;DHT22;9636;47.382;8.480;2023-06-10T01:35:26;24.30;86.30
19007;DHT22;9636;47.382;8.480;2023-06-10T01:37:57;24.20;86.40
19007;DHT22;9636;47.382;8.480;2023-06-10T01:40:25;24.20;86.40
19007;DHT22;9636;47.382;8.480;2023-06-10T01:42:53;24.10;86.40
19007;DHT22;9636;47.382;8.480;2023-06-10T01:45:20;24.10;86.60
19007;DHT22;9636;47.382;8.480;2023-06-10T01:47:46;24.10;86.70
19007;DHT22;9636;47.382;8.480;2023-06-10T01:50:13;24.10;86.70
19007;DHT22;9636;47.382;8.480;2023-06-10T01:52:41;24.00;86.70
19007;DHT22;9636;47.382;8.480;2023-06-10T01:55:10;24.00;86.70
19007;DHT22;9636;47.382;8.480;2023-06-10T01:57:36;24.00;86.80
19007;DHT22;9636;47.382;8.480;2023-06-10T02:00:04;23.90;86.90
19007;DHT22;9636;47.382;8.480;2023-06-10T02:02:31;23.90;86.90
19007;DHT22;9636;47.382;8.480;2023-06-10T02:04:58;23.90;87.10
19007;DHT22;9636;47.382;8.480;2023-06-10T02:07:25;23.90;87.10
19007;DHT22;9636;47.382;8.480;2023-06-10T02:09:52;23.80;87.10
19007;DHT22;9636;47.382;8.480;2023-06-10T02:12:20;23.80;87.10
19007;DHT22;9636;47.382;8.480;2023-06-10T02:14:47;23.80;87.30
19007;DHT22;9636;47.382;8.480;2023-06-10T02:17:14;23.70;87.30
19007;DHT22;9636;47.382;8.480;2023-06-10T02:19:41;23.70;87.30
19007;DHT22;9636;47.382;8.480;2023-06-10T02:22:08;23.70;87.40
19007;DHT22;9636;47.382;8.480;2023-06-10T02:24:36;23.70;87.40
19007;DHT22;9636;47.382;8.480;2023-06-10T02:27:04;23.70;87.50
19007;DHT22;9636;47.382;8.480;2023-06-10T02:29:34;23.60;87.50
19007;DHT22;9636;47.382;8.480;2023-06-10T02:32:02;23.60;87.50
19007;DHT22;9636;47.382;8.480;2023-06-10T02:34:29;23.60;87.60
19007;DHT22;9636;47.382;8.480;2023-06-10T02:36:56;23.50;87.50
19007;DHT22;9636;47.382;8.480;2023-06-10T02:39:23;23.50;87.60
19007;DHT22;9636;47.382;8.480;2023-06-10T02:41:50;23.50;87.70
19007;DHT22;9636;47.382;8.480;2023-06-10T02:44:18;23.50;87.70
19007;DHT22;9636;47.382;8.480;2023-06-10T02:46:46;23.50;87.70
19007;DHT22;9636;47.382;8.480;2023-06-10T02:49:13;23.40;87.80
19007;DHT22;9636;47.382;8.480;2023-06-10T02:51:39;23.40;87.80
19007;DHT22;9636;47.382;8.480;2023-06-10T02:54:06;23.40;87.90
19007;DHT22;9636;47.382;8.480;2023-06-10T02:56:33;23.40;88.00
19007;DHT22;9636;47.382;8.480;2023-06-10T02:59:00;23.40;88.00
19007;DHT22;9636;47.382;8.480;2023-06-10T03:01:27;23.30;88.00
19007;DHT22;9636;47.382;8.480;2023-06-10T03:03:55;23.20;88.00
19007;DHT22;9636;47.382;8.480;2023-06-10T03:06:23;23.30;88.10
19007;DHT22;9636;47.382;8.480;2023-06-10T03:08:51;23.20;88.10
19007;DHT22;9636;47.382;8.480;2023-06-10T03:11:18;23.20;88.20
19007;DHT22;9636;47.382;8.480;2023-06-10T03:13:45;23.20;88.20
19007;DHT22;9636;47.382;8.480;2023-06-10T03:16:12;23.20;88.20
19007;DHT22;9636;47.382;8.480;2023-06-10T03:18:39;23.10;88.30
19007;DHT22;9636;47.382;8.480;2023-06-10T03:21:07;23.10;88.20
19007;DHT22;9636;47.382;8.480;2023-06-10T03:23:35;23.10;88.20
19007;DHT22;9636;47.382;8.480;2023-06-10T03:26:02;23.10;88.40
19007;DHT22;9636;47.382;8.480;2023-06-10T03:28:30;23.10;88.40
19007;DHT22;9636;47.382;8.480;2023-06-10T03:30:57;23.00;88.40
19007;DHT22;9636;47.382;8.480;2023-06-10T03:33:24;23.00;88.40
19007;DHT22;9636;47.382;8.480;2023-06-10T03:35:52;23.00;88.50
19007;DHT22;9636;47.382;8.480;2023-06-10T03:38:20;23.00;88.50
19007;DHT22;9636;47.382;8.480;2023-06-10T03:40:47;23.00;88.50
19007;DHT22;9636;47.382;8.480;2023-06-10T03:43:14;23.00;88.60
19007;DHT22;9636;47.382;8.480;2023-06-10T03:45:41;22.90;88.60
19007;DHT22;9636;47.382;8.480;2023-06-10T03:48:08;22.90;88.60
19007;DHT22;9636;47.382;8.480;2023-06-10T03:50:36;22.90;88.70
19007;DHT22;9636;47.382;8.480;2023-06-10T03:53:03;22.90;88.70
19007;DHT22;9636;47.382;8.480;2023-06-10T03:55:31;22.90;88.70
19007;DHT22;9636;47.382;8.480;2023-06-10T03:57:58;22.90;88.80
19007;DHT22;9636;47.382;8.480;2023-06-10T04:00:25;22.90;88.70
19007;DHT22;9636;47.382;8.480;2023-06-10T04:02:52;22.80;88.70
19007;DHT22;9636;47.382;8.480;2023-06-10T04:05:19;22.80;88.80
19007;DHT22;9636;47.382;8.480;2023-06-10T04:07:47;22.80;88.70
19007;DHT22;9636;47.382;8.480;2023-06-10T04:10:15;22.80;88.70
19007;DHT22;9636;47.382;8.480;2023-06-10T04:12:44;22.80;88.90
19007;DHT22;9636;47.382;8.480;2023-06-10T04:15:11;22.80;88.80
19007;DHT22;9636;47.382;8.480;2023-06-10T04:17:38;22.80;88.80
19007;DHT22;9636;47.382;8.480;2023-06-10T04:20:06;22.80;88.70
19007;DHT22;9636;47.382;8.480;2023-06-10T04:22:35;22.80;88.70
19007;DHT22;9636;47.382;8.480;2023-06-10T04:25:02;22.90;88.70
19007;DHT22;9636;47.382;8.480;2023-06-10T04:27:29;22.90;88.70
19007;DHT22;9636;47.382;8.480;2023-06-10T04:29:58;22.90;88.50
19007;DHT22;9636;47.382;8.480;2023-06-10T04:32:25;22.90;88.50
19007;DHT22;9636;47.382;8.480;2023-06-10T04:34:52;23.00;88.40
19007;DHT22;9636;47.382;8.480;2023-06-10T04:37:18;23.00;88.30
19007;DHT22;9636;47.382;8.480;2023-06-10T04:39:45;23.10;88.30
19007;DHT22;9636;47.382;8.480;2023-06-10T04:42:12;23.10;88.20
19007;DHT22;9636;47.382;8.480;2023-06-10T04:44:39;23.20;88.20
19007;DHT22;9636;47.382;8.480;2023-06-10T04:47:08;23.20;88.10
19007;DHT22;9636;47.382;8.480;2023-06-10T04:49:35;23.30;88.10
19007;DHT22;9636;47.382;8.480;2023-06-10T04:52:02;23.40;88.00
19007;DHT22;9636;47.382;8.480;2023-06-10T04:54:30;23.50;87.70
19007;DHT22;9636;47.382;8.480;2023-06-10T04:56:58;23.60;87.50
19007;DHT22;9636;47.382;8.480;2023-06-10T04:59:24;23.70;87.40
19007;DHT22;9636;47.382;8.480;2023-06-10T05:01:51;23.80;87.30
19007;DHT22;9636;47.382;8.480;2023-06-10T05:04:20;23.90;87.10
19007;DHT22;9636;47.382;8.480;2023-06-10T05:06:46;24.00;87.00
19007;DHT22;9636;47.382;8.480;2023-06-10T05:09:13;24.20;86.80
19007;DHT22;9636;47.382;8.480;2023-06-10T05:11:41;24.20;86.70
19007;DHT22;9636;47.382;8.480;2023-06-10T05:14:08;24.40;86.60
19007;DHT22;9636;47.382;8.480;2023-06-10T05:16:34;24.60;86.10
19007;DHT22;9636;47.382;8.480;2023-06-10T05:19:01;24.70;86.10
19007;DHT22;9636;47.382;8.480;2023-06-10T05:21:30;24.90;85.80
19007;DHT22;9636;47.382;8.480;2023-06-10T05:23:57;25.00;85.60
19007;DHT22;9636;47.382;8.480;2023-06-10T05:26:23;25.10;85.40
19007;DHT22;9636;47.382;8.480;2023-06-10T05:28:50;25.20;85.30
19007;DHT22;9636;47.382;8.480;2023-06-10T05:31:18;25.40;86.10
19007;DHT22;9636;47.382;8.480;2023-06-10T05:33:44;25.50;85.10
19007;DHT22;9636;47.382;8.480;2023-06-10T05:36:11;25.60;84.80
19007;DHT22;9636;47.382;8.480;2023-06-10T05:38:39;25.80;84.60
19007;DHT22;9636;47.382;8.480;2023-06-10T05:41:06;25.90;84.50
19007;DHT22;9636;47.382;8.480;2023-06-10T05:43:33;26.10;84.30
19007;DHT22;9636;47.382;8.480;2023-06-10T05:46:00;26.20;84.40
19007;DHT22;9636;47.382;8.480;2023-06-10T05:48:27;26.20;84.40
19007;DHT22;9636;47.382;8.480;2023-06-10T05:50:54;26.30;84.50
19007;DHT22;9636;47.382;8.480;2023-06-10T05:53:20;26.40;84.20
19007;DHT22;9636;47.382;8.480;2023-06-10T05:55:49;26.60;84.10
19007;DHT22;9636;47.382;8.480;2023-06-10T05:58:16;26.70;84.00
19007;DHT22;9636;47.382;8.480;2023-06-10T06:00:43;26.80;83.90
19007;DHT22;9636;47.382;8.480;2023-06-10T06:03:10;26.90;83.80
19007;DHT22;9636;47.382;8.480;2023-06-10T06:05:37;27.10;83.70
19007;DHT22;9636;47.382;8.480;2023-06-10T06:08:04;27.20;83.30
19007;DHT22;9636;47.382;8.480;2023-06-10T06:10:31;27.40;83.10
19007;DHT22;9636;47.382;8.480;2023-06-10T06:12:59;27.50;82.80
19007;DHT22;9636;47.382;8.480;2023-06-10T06:15:26;27.70;82.50
19007;DHT22;9636;47.382;8.480;2023-06-10T06:17:53;27.10;79.20
19007;DHT22;9636;47.382;8.480;2023-06-10T06:20:21;26.50;81.50
19007;DHT22;9636;47.382;8.480;2023-06-10T06:22:48;26.30;81.10
19007;DHT22;9636;47.382;8.480;2023-06-10T06:25:15;26.30;83.10
19007;DHT22;9636;47.382;8.480;2023-06-10T06:27:42;26.20;84.40
19007;DHT22;9636;47.382;8.480;2023-06-10T06:30:11;26.20;83.80
19007;DHT22;9636;47.382;8.480;2023-06-10T06:32:38;26.10;84.20
19007;DHT22;9636;47.382;8.480;2023-06-10T06:35:05;26.20;83.00
19007;DHT22;9636;47.382;8.480;2023-06-10T06:37:33;26.20;82.20
19007;DHT22;9636;47.382;8.480;2023-06-10T06:40:01;26.30;83.00
19007;DHT22;9636;47.382;8.480;2023-06-10T06:42:29;26.30;84.40
19007;DHT22;9636;47.382;8.480;2023-06-10T06:44:56;26.30;81.40
19007;DHT22;9636;47.382;8.480;2023-06-10T06:47:24;26.30;81.70
19007;DHT22;9636;47.382;8.480;2023-06-10T06:49:52;26.30;81.40
19007;DHT22;9636;47.382;8.480;2023-06-10T06:52:18;26.30;81.40
19007;DHT22;9636;47.382;8.480;2023-06-10T06:54:45;26.40;81.60
19007;DHT22;9636;47.382;8.480;2023-06-10T06:57:12;26.40;83.70
19007;DHT22;9636;47.382;8.480;2023-06-10T06:59:39;26.50;83.30
19007;DHT22;9636;47.382;8.480;2023-06-10T07:02:06;26.50;82.80
19007;DHT22;9636;47.382;8.480;2023-06-10T07:04:34;26.60;82.70
19007;DHT22;9636;47.382;8.480;2023-06-10T07:07:01;26.60;83.00
19007;DHT22;9636;47.382;8.480;2023-06-10T07:09:28;26.80;82.30
19007;DHT22;9636;47.382;8.480;2023-06-10T07:11:54;27.20;81.40
19007;DHT22;9636;47.382;8.480;2023-06-10T07:14:21;27.40;81.00
19007;DHT22;9636;47.382;8.480;2023-06-10T07:16:48;27.50;80.30
19007;DHT22;9636;47.382;8.480;2023-06-10T07:19:15;27.60;79.90
19007;DHT22;9636;47.382;8.480;2023-06-10T07:21:43;27.70;79.50
19007;DHT22;9636;47.382;8.480;2023-06-10T07:24:10;27.80;79.10
19007;DHT22;9636;47.382;8.480;2023-06-10T07:26:37;27.90;79.50
19007;DHT22;9636;47.382;8.480;2023-06-10T07:29:03;28.00;79.80
19007;DHT22;9636;47.382;8.480;2023-06-10T07:31:30;28.10;78.40
19007;DHT22;9636;47.382;8.480;2023-06-10T07:33:57;28.10;77.40
19007;DHT22;9636;47.382;8.480;2023-06-10T07:36:24;28.20;78.10
19007;DHT22;9636;47.382;8.480;2023-06-10T07:38:54;28.30;78.10
19007;DHT22;9636;47.382;8.480;2023-06-10T07:41:22;28.40;76.90
19007;DHT22;9636;47.382;8.480;2023-06-10T07:43:50;28.50;77.40
19007;DHT22;9636;47.382;8.480;2023-06-10T07:46:20;28.70;77.40
19007;DHT22;9636;47.382;8.480;2023-06-10T07:48:47;28.90;76.60
19007;DHT22;9636;47.382;8.480;2023-06-10T07:51:14;29.20;76.00
19007;DHT22;9636;47.382;8.480;2023-06-10T07:53:41;29.60;75.50
19007;DHT22;9636;47.382;8.480;2023-06-10T07:56:09;29.90;75.00
19007;DHT22;9636;47.382;8.480;2023-06-10T07:58:36;30.20;74.20
19007;DHT22;9636;47.382;8.480;2023-06-10T08:01:03;30.50;74.20
19007;DHT22;9636;47.382;8.480;2023-06-10T08:03:30;30.70;74.10
19007;DHT22;9636;47.382;8.480;2023-06-10T08:05:56;30.70;73.50
19007;DHT22;9636;47.382;8.480;2023-06-10T08:08:23;30.80;73.70
19007;DHT22;9636;47.382;8.480;2023-06-10T08:10:50;30.80;73.50
19007;DHT22;9636;47.382;8.480;2023-06-10T08:13:18;30.80;73.50
19007;DHT22;9636;47.382;8.480;2023-06-10T08:15:45;31.10;73.20
19007;DHT22;9636;47.382;8.480;2023-06-10T08:18:13;31.40;72.40
19007;DHT22;9636;47.382;8.480;2023-06-10T08:20:40;31.50;71.80
19007;DHT22;9636;47.382;8.480;2023-06-10T08:23:06;31.60;72.10
19007;DHT22;9636;47.382;8.480;2023-06-10T08:25:33;31.50;72.30
19007;DHT22;9636;47.382;8.480;2023-06-10T08:28:00;31.40;72.80
19007;DHT22;9636;47.382;8.480;2023-06-10T08:30:28;31.30;73.40
19007;DHT22;9636;47.382;8.480;2023-06-10T08:32:55;31.10;73.00
19007;DHT22;9636;47.382;8.480;2023-06-10T08:35:22;30.80;74.50
19007;DHT22;9636;47.382;8.480;2023-06-10T08:37:49;30.70;73.90
19007;DHT22;9636;47.382;8.480;2023-06-10T08:40:16;30.60;73.70
19007;DHT22;9636;47.382;8.480;2023-06-10T08:42:47;30.70;73.70
19007;DHT22;9636;47.382;8.480;2023-06-10T08:45:17;30.70;73.10
19007;DHT22;9636;47.382;8.480;2023-06-10T08:47:46;30.60;74.50
19007;DHT22;9636;47.382;8.480;2023-06-10T08:50:16;30.60;75.00
19007;DHT22;9636;47.382;8.480;2023-06-10T08:52:44;30.60;74.60
19007;DHT22;9636;47.382;8.480;2023-06-10T08:55:14;30.60;74.80
19007;DHT22;9636;47.382;8.480;2023-06-10T08:57:41;30.60;74.60
19007;DHT22;9636;47.382;8.480;2023-06-10T09:00:11;30.50;74.60
19007;DHT22;9636;47.382;8.480;2023-06-10T09:02:38;30.60;74.30
19007;DHT22;9636;47.382;8.480;2023-06-10T09:05:08;30.70;74.10
19007;DHT22;9636;47.382;8.480;2023-06-10T09:07:36;30.70;73.70
19007;DHT22;9636;47.382;8.480;2023-06-10T09:10:04;30.80;73.70
19007;DHT22;9636;47.382;8.480;2023-06-10T09:12:32;30.80;73.30
19007;DHT22;9636;47.382;8.480;2023-06-10T09:15:00;30.80;73.30
19007;DHT22;9636;47.382;8.480;2023-06-10T09:17:27;30.90;72.70
19007;DHT22;9636;47.382;8.480;2023-06-10T09:19:54;30.80;74.10
19007;DHT22;9636;47.382;8.480;2023-06-10T09:22:24;30.80;72.70
19007;DHT22;9636;47.382;8.480;2023-06-10T09:25:01;30.80;74.70
19007;DHT22;9636;47.382;8.480;2023-06-10T09:27:31;30.80;74.00
19007;DHT22;9636;47.382;8.480;2023-06-10T09:29:58;30.90;75.10
19007;DHT22;9636;47.382;8.480;2023-06-10T09:32:25;30.90;75.20
19007;DHT22;9636;47.382;8.480;2023-06-10T09:34:53;30.90;73.50
19007;DHT22;9636;47.382;8.480;2023-06-10T09:37:20;30.90;75.10
19007;DHT22;9636;47.382;8.480;2023-06-10T09:40:02;30.90;73.60
19007;DHT22;9636;47.382;8.480;2023-06-10T09:42:33;30.90;72.40
19007;DHT22;9636;47.382;8.480;2023-06-10T09:45:00;30.80;72.10
19007;DHT22;9636;47.382;8.480;2023-06-10T09:47:28;30.70;72.40
19007;DHT22;9636;47.382;8.480;2023-06-10T09:49:54;30.80;72.20
19007;DHT22;9636;47.382;8.480;2023-06-10T09:52:22;30.90;72.90
19007;DHT22;9636;47.382;8.480;2023-06-10T09:54:50;31.00;74.60
19007;DHT22;9636;47.382;8.480;2023-06-10T09:57:19;31.10;74.20
19007;DHT22;9636;47.382;8.480;2023-06-10T09:59:46;31.20;73.60
19007;DHT22;9636;47.382;8.480;2023-06-10T10:02:14;31.20;74.80
19007;DHT22;9636;47.382;8.480;2023-06-10T10:04:41;31.20;72.80
19007;DHT22;9636;47.382;8.480;2023-06-10T10:07:08;31.30;72.20
19007;DHT22;9636;47.382;8.480;2023-06-10T10:09:36;31.30;71.30
19007;DHT22;9636;47.382;8.480;2023-06-10T10:12:05;31.20;72.60
19007;DHT22;9636;47.382;8.480;2023-06-10T10:14:36;31.40;73.10
19007;DHT22;9636;47.382;8.480;2023-06-10T10:17:05;31.40;73.60
19007;DHT22;9636;47.382;8.480;2023-06-10T10:19:36;31.40;70.60
19007;DHT22;9636;47.382;8.480;2023-06-10T10:22:08;31.30;70.40
19007;DHT22;9636;47.382;8.480;2023-06-10T10:24:38;31.50;72.20
19007;DHT22;9636;47.382;8.480;2023-06-10T10:27:13;31.50;72.30
19007;DHT22;9636;47.382;8.480;2023-06-10T10:29:45;31.60;72.40
19007;DHT22;9636;47.382;8.480;2023-06-10T10:32:13;31.60;72.00
19007;DHT22;9636;47.382;8.480;2023-06-10T10:34:43;31.60;71.50
19007;DHT22;9636;47.382;8.480;2023-06-10T10:37:20;31.60;71.60
19007;DHT22;9636;47.382;8.480;2023-06-10T10:39:47;31.70;72.40
19007;DHT22;9636;47.382;8.480;2023-06-10T10:42:14;31.70;72.00
19007;DHT22;9636;47.382;8.480;2023-06-10T10:44:44;31.70;72.10
19007;DHT22;9636;47.382;8.480;2023-06-10T10:47:12;31.70;71.80
19007;DHT22;9636;47.382;8.480;2023-06-10T10:49:43;31.70;71.00
19007;DHT22;9636;47.382;8.480;2023-06-10T10:52:11;31.80;70.00
19007;DHT22;9636;47.382;8.480;2023-06-10T10:54:44;31.80;71.20
19007;DHT22;9636;47.382;8.480;2023-06-10T10:57:13;31.80;72.20
19007;DHT22;9636;47.382;8.480;2023-06-10T11:00:02;31.80;72.40
19007;DHT22;9636;47.382;8.480;2023-06-10T11:02:37;31.80;72.80
19007;DHT22;9636;47.382;8.480;2023-06-10T11:05:09;31.90;72.90
19007;DHT22;9636;47.382;8.480;2023-06-10T11:07:36;31.90;72.50
19007;DHT22;9636;47.382;8.480;2023-06-10T11:10:07;31.90;73.10
19007;DHT22;9636;47.382;8.480;2023-06-10T11:12:41;32.00;70.70
19007;DHT22;9636;47.382;8.480;2023-06-10T11:15:10;32.00;71.90
19007;DHT22;9636;47.382;8.480;2023-06-10T11:17:37;32.00;71.90
19007;DHT22;9636;47.382;8.480;2023-06-10T11:20:04;32.00;71.50
19007;DHT22;9636;47.382;8.480;2023-06-10T11:22:33;32.10;71.70
19007;DHT22;9636;47.382;8.480;2023-06-10T11:24:59;32.10;72.20
19007;DHT22;9636;47.382;8.480;2023-06-10T11:27:37;32.10;72.00
19007;DHT22;9636;47.382;8.480;2023-06-10T11:30:25;32.10;72.30
19007;DHT22;9636;47.382;8.480;2023-06-10T11:32:52;32.20;71.60
19007;DHT22;9636;47.382;8.480;2023-06-10T11:35:20;32.10;70.10
19007;DHT22;9636;47.382;8.480;2023-06-10T11:37:50;32.00;68.60
19007;DHT22;9636;47.382;8.480;2023-06-10T11:40:16;32.00;69.90
19007;DHT22;9636;47.382;8.480;2023-06-10T11:42:43;32.00;70.20
19007;DHT22;9636;47.382;8.480;2023-06-10T11:45:15;32.00;70.80
19007;DHT22;9636;47.382;8.480;2023-06-10T11:47:55;32.10;71.80
19007;DHT22;9636;47.382;8.480;2023-06-10T11:50:28;32.10;72.00
19007;DHT22;9636;47.382;8.480;2023-06-10T11:52:55;32.10;70.40
19007;DHT22;9636;47.382;8.480;2023-06-10T11:55:24;32.00;70.50
19007;DHT22;9636;47.382;8.480;2023-06-10T11:57:50;31.80;70.00
19007;DHT22;9636;47.382;8.480;2023-06-10T12:00:23;31.50;72.00
19007;DHT22;9636;47.382;8.480;2023-06-10T12:02:56;31.80;71.20
19007;DHT22;9636;47.382;8.480;2023-06-10T12:05:24;31.30;73.50
19007;DHT22;9636;47.382;8.480;2023-06-10T12:08:10;31.00;72.70
19007;DHT22;9636;47.382;8.480;2023-06-10T12:10:40;30.90;70.50
19007;DHT22;9636;47.382;8.480;2023-06-10T12:13:08;30.90;73.90
19007;DHT22;9636;47.382;8.480;2023-06-10T12:15:35;30.80;73.80
19007;DHT22;9636;47.382;8.480;2023-06-10T12:18:04;30.80;74.00
19007;DHT22;9636;47.382;8.480;2023-06-10T12:20:32;30.60;74.80
19007;DHT22;9636;47.382;8.480;2023-06-10T12:23:00;30.60;75.00
19007;DHT22;9636;47.382;8.480;2023-06-10T12:25:28;30.50;74.80
19007;DHT22;9636;47.382;8.480;2023-06-10T12:27:57;30.50;74.90
19007;DHT22;9636;47.382;8.480;2023-06-10T12:30:25;30.50;75.50
19007;DHT22;9636;47.382;8.480;2023-06-10T12:32:53;30.40;73.40
19007;DHT22;9636;47.382;8.480;2023-06-10T12:35:23;30.60;72.30
19007;DHT22;9636;47.382;8.480;2023-06-10T12:38:01;30.60;73.60
19007;DHT22;9636;47.382;8.480;2023-06-10T12:40:29;30.50;71.90
19007;DHT22;9636;47.382;8.480;2023-06-10T12:42:57;30.30;70.60
19007;DHT22;9636;47.382;8.480;2023-06-10T12:45:27;30.20;71.50
19007;DHT22;9636;47.382;8.480;2023-06-10T12:48:04;30.30;71.50
19007;DHT22;9636;47.382;8.480;2023-06-10T12:50:35;30.40;69.40
19007;DHT22;9636;47.382;8.480;2023-06-10T12:53:02;30.40;72.00
19007;DHT22;9636;47.382;8.480;2023-06-10T12:55:29;30.30;72.70
19007;DHT22;9636;47.382;8.480;2023-06-10T12:57:56;30.40;68.80
19007;DHT22;9636;47.382;8.480;2023-06-10T13:00:23;30.30;71.90
19007;DHT22;9636;47.382;8.480;2023-06-10T13:02:51;30.20;72.30
19007;DHT22;9636;47.382;8.480;2023-06-10T13:05:19;30.20;72.60
19007;DHT22;9636;47.382;8.480;2023-06-10T13:07:47;30.20;71.40
19007;DHT22;9636;47.382;8.480;2023-06-10T13:10:15;30.10;71.80
19007;DHT22;9636;47.382;8.480;2023-06-10T13:12:42;30.10;71.10
19007;DHT22;9636;47.382;8.480;2023-06-10T13:15:10;30.00;69.70
19007;DHT22;9636;47.382;8.480;2023-06-10T13:17:36;30.00;67.00
19007;DHT22;9636;47.382;8.480;2023-06-10T13:20:04;30.00;68.90
19007;DHT22;9636;47.382;8.480;2023-06-10T13:22:31;30.10;70.90
19007;DHT22;9636;47.382;8.480;2023-06-10T13:25:00;30.10;67.80
19007;DHT22;9636;47.382;8.480;2023-06-10T13:27:26;30.10;67.30
19007;DHT22;9636;47.382;8.480;2023-06-10T13:29:56;30.10;67.40
19007;DHT22;9636;47.382;8.480;2023-06-10T13:32:23;30.10;67.90
19007;DHT22;9636;47.382;8.480;2023-06-10T13:34:50;30.10;69.70
19007;DHT22;9636;47.382;8.480;2023-06-10T13:37:18;30.20;70.70
19007;DHT22;9636;47.382;8.480;2023-06-10T13:39:46;30.20;71.50
19007;DHT22;9636;47.382;8.480;2023-06-10T13:42:15;30.00;72.10
19007;DHT22;9636;47.382;8.480;2023-06-10T13:44:42;30.00;72.20
19007;DHT22;9636;47.382;8.480;2023-06-10T13:47:09;29.90;69.80
19007;DHT22;9636;47.382;8.480;2023-06-10T13:49:36;29.80;72.40
19007;DHT22;9636;47.382;8.480;2023-06-10T13:52:03;29.90;72.30
19007;DHT22;9636;47.382;8.480;2023-06-10T13:54:30;29.90;73.10
19007;DHT22;9636;47.382;8.480;2023-06-10T13:56:57;29.80;71.40
19007;DHT22;9636;47.382;8.480;2023-06-10T13:59:26;29.70;72.10
19007;DHT22;9636;47.382;8.480;2023-06-10T14:01:53;29.70;73.50
19007;DHT22;9636;47.382;8.480;2023-06-10T14:04:19;29.70;72.70
19007;DHT22;9636;47.382;8.480;2023-06-10T14:06:47;29.80;73.90
19007;DHT22;9636;47.382;8.480;2023-06-10T14:09:14;29.80;73.10
19007;DHT22;9636;47.382;8.480;2023-06-10T14:11:41;29.70;70.90
19007;DHT22;9636;47.382;8.480;2023-06-10T14:14:09;29.80;67.80
19007;DHT22;9636;47.382;8.480;2023-06-10T14:16:37;29.80;68.40
19007;DHT22;9636;47.382;8.480;2023-06-10T14:19:04;29.80;67.40
19007;DHT22;9636;47.382;8.480;2023-06-10T14:21:30;29.80;71.50
19007;DHT22;9636;47.382;8.480;2023-06-10T14:23:57;29.70;71.40
19007;DHT22;9636;47.382;8.480;2023-06-10T14:26:24;29.60;70.90
19007;DHT22;9636;47.382;8.480;2023-06-10T14:28:51;29.70;72.40
19007;DHT22;9636;47.382;8.480;2023-06-10T14:31:18;29.60;72.60
19007;DHT22;9636;47.382;8.480;2023-06-10T14:33:46;29.60;71.40
19007;DHT22;9636;47.382;8.480;2023-06-10T14:36:13;29.50;73.50
19007;DHT22;9636;47.382;8.480;2023-06-10T14:38:40;29.60;73.40
19007;DHT22;9636;47.382;8.480;2023-06-10T14:41:07;29.70;70.50
19007;DHT22;9636;47.382;8.480;2023-06-10T14:43:33;29.70;74.30
19007;DHT22;9636;47.382;8.480;2023-06-10T14:46:00;29.50;71.70
19007;DHT22;9636;47.382;8.480;2023-06-10T14:48:27;29.50;72.00
19007;DHT22;9636;47.382;8.480;2023-06-10T14:50:55;29.50;71.20
19007;DHT22;9636;47.382;8.480;2023-06-10T14:53:22;29.60;71.60
19007;DHT22;9636;47.382;8.480;2023-06-10T14:55:49;29.50;72.30
19007;DHT22;9636;47.382;8.480;2023-06-10T14:58:15;29.40;67.60
19007;DHT22;9636;47.382;8.480;2023-06-10T15:00:42;29.50;71.70
19007;DHT22;9636;47.382;8.480;2023-06-10T15:03:09;29.50;63.90
19007;DHT22;9636;47.382;8.480;2023-06-10T15:05:36;29.50;68.20
19007;DHT22;9636;47.382;8.480;2023-06-10T15:08:04;29.50;67.70
19007;DHT22;9636;47.382;8.480;2023-06-10T15:10:31;29.50;69.00
19007;DHT22;9636;47.382;8.480;2023-06-10T15:12:58;29.60;70.30
19007;DHT22;9636;47.382;8.480;2023-06-10T15:17:53;29.60;69.90
19007;DHT22;9636;47.382;8.480;2023-06-10T15:20:21;29.60;70.70
19007;DHT22;9636;47.382;8.480;2023-06-10T15:22:47;29.40;68.80
19007;DHT22;9636;47.382;8.480;2023-06-10T15:25:16;29.40;67.00
19007;DHT22;9636;47.382;8.480;2023-06-10T15:27:42;29.50;67.80
19007;DHT22;9636;47.382;8.480;2023-06-10T15:30:10;29.40;66.20
19007;DHT22;9636;47.382;8.480;2023-06-10T15:32:37;29.50;65.70
19007;DHT22;9636;47.382;8.480;2023-06-10T15:35:04;29.50;64.20
19007;DHT22;9636;47.382;8.480;2023-06-10T15:37:31;29.40;67.80
19007;DHT22;9636;47.382;8.480;2023-06-10T15:39:58;29.40;67.90
19007;DHT22;9636;47.382;8.480;2023-06-10T15:42:26;29.40;66.10
19007;DHT22;9636;47.382;8.480;2023-06-10T15:44:53;29.40;66.00
19007;DHT22;9636;47.382;8.480;2023-06-10T15:47:19;29.40;68.50
19007;DHT22;9636;47.382;8.480;2023-06-10T15:49:46;29.40;68.10
19007;DHT22;9636;47.382;8.480;2023-06-10T15:52:13;29.40;68.00